Waynesville, Ohio
Current Conditions -  °F | °C
As of 6:53 AM on Tuesday 21 Oct 2014 (Local Time) from KMGY Reporting Station
Overcast Overcast  
Wind Chill: 50°   Ceiling: 6000
Heat Index: 50°   Visibility: 10mi
Dew Point: 45°   Wind: 12mph
Humidity: 83%   Direction: 330°NNW
Pressure: 29.95"   Gusts: NA
Location:  39.53°N, 84.09°W
Report Text: KMGY 211053Z AUTO 33010KT 10SM OVC060 10/07 A2995 RMK AO2 SLP141 T01000072
Loading
Personal Weather Stations






























Interactive Weather Map
Tropical Storm Tracking
New forecast layout! Learn more

10-Day Weather Forecast

Advertisements
Track Severe Weather on mobile